Time;durP1;ratioP1;P1;durP2;ratioP2;P2;SDS_P1;SDS_P2;PMS_P1;PMS_P2;Temp;Humidity;BMP_temperature;BMP_pressure;BME280_temperature;BME280_humidity;BME280_pressure;Samples;Min_cycle;Max_cycle;Signal;HPM_P1;HPM_P2
2022/08/07 00:01:00;;;;;;;9.38;6.15;;;15.90;99.90;;;;;;5040228;28;20028;-76
2022/08/07 00:03:27;;;;;;;10.60;5.93;;;15.90;99.90;;;;;;5057341;28;20047;-74
2022/08/07 00:05:53;;;;;;;12.73;6.53;;;15.90;99.90;;;;;;5024995;28;20017;-74
2022/08/07 00:08:21;;;;;;;9.10;6.82;;;15.90;99.90;;;;;;5042483;28;20052;-74
2022/08/07 00:10:47;;;;;;;9.80;5.80;;;15.90;99.90;;;;;;5043258;28;20100;-74
2022/08/07 00:13:14;;;;;;;11.23;5.93;;;15.90;99.90;;;;;;5040554;28;20055;-74
2022/08/07 00:15:39;;;;;;;13.30;6.90;;;15.80;99.90;;;;;;5040900;28;20061;-74
2022/08/07 00:18:07;;;;;;;12.93;6.47;;;15.80;99.90;;;;;;5042746;28;20529;-74
2022/08/07 00:20:35;;;;;;;12.27;6.10;;;15.80;99.90;;;;;;5042597;28;20020;-74
2022/08/07 00:23:01;;;;;;;11.18;6.47;;;15.80;99.90;;;;;;5041004;28;20025;-75
2022/08/07 00:25:26;;;;;;;11.32;6.50;;;15.80;99.90;;;;;;5059390;28;20496;-74
2022/08/07 00:27:52;;;;;;;11.32;7.10;;;15.80;99.90;;;;;;5042232;28;20025;-74
2022/08/07 00:30:18;;;;;;;7.78;5.97;;;15.70;99.90;;;;;;5040164;28;20099;-74
2022/08/07 00:32:49;;;;;;;12.02;7.30;;;15.70;99.90;;;;;;5041706;28;20121;-74
2022/08/07 00:35:16;;;;;;;15.50;6.70;;;15.60;99.90;;;;;;5029888;28;20053;-74
2022/08/07 00:37:42;;;;;;;12.73;7.07;;;15.60;99.90;;;;;;5040707;28;20032;-74
2022/08/07 00:40:09;;;;;;;8.05;6.05;;;15.60;99.90;;;;;;5041518;28;20469;-74
2022/08/07 00:42:35;;;;;;;10.18;6.32;;;15.60;99.90;;;;;;5040695;28;20086;-73
2022/08/07 00:45:03;;;;;;;11.05;6.60;;;15.60;99.90;;;;;;5038701;28;20055;-74
2022/08/07 00:47:29;;;;;;;11.68;6.57;;;15.60;99.90;;;;;;5023398;28;20036;-73
2022/08/07 00:49:55;;;;;;;11.95;7.03;;;15.50;99.90;;;;;;5022849;28;20488;-74
2022/08/07 00:52:21;;;;;;;10.05;6.13;;;15.50;99.90;;;;;;5038647;28;20128;-74
2022/08/07 00:54:47;;;;;;;9.15;6.53;;;15.50;99.90;;;;;;5040756;28;20033;-74
2022/08/07 00:57:14;;;;;;;13.27;6.95;;;15.50;99.90;;;;;;5039675;28;20037;-74
2022/08/07 00:59:40;;;;;;;9.27;6.03;;;15.50;99.90;;;;;;5041331;28;20116;-74
2022/08/07 01:02:07;;;;;;;9.23;6.90;;;15.40;99.90;;;;;;5024311;28;20109;-74
2022/08/07 01:04:33;;;;;;;11.35;6.95;;;15.40;99.90;;;;;;5034884;28;20048;-74
2022/08/07 01:07:00;;;;;;;10.60;6.32;;;15.40;99.90;;;;;;5039997;28;20036;-74
2022/08/07 01:09:27;;;;;;;13.00;6.97;;;15.40;99.90;;;;;;5044518;28;20033;-74
2022/08/07 01:11:53;;;;;;;9.98;6.78;;;15.40;99.90;;;;;;5045618;28;20032;-74
2022/08/07 01:14:20;;;;;;;12.65;6.68;;;15.30;99.90;;;;;;5040739;28;20779;-74
2022/08/07 01:16:47;;;;;;;11.77;7.10;;;15.30;99.90;;;;;;5039915;28;20082;-74
2022/08/07 01:19:14;;;;;;;9.50;6.55;;;15.30;99.90;;;;;;5039308;28;20485;-74
2022/08/07 01:21:40;;;;;;;13.77;6.68;;;15.30;99.90;;;;;;5042560;28;20033;-74
2022/08/07 01:24:07;;;;;;;14.57;7.90;;;15.30;99.90;;;;;;5040591;28;20028;-74
2022/08/07 01:26:33;;;;;;;11.20;7.30;;;15.30;99.90;;;;;;5041403;28;20142;-74
2022/08/07 01:29:00;;;;;;;12.40;7.68;;;15.30;99.90;;;;;;5042132;28;20036;-74
2022/08/07 01:31:31;;;;;;;14.07;8.35;;;15.20;99.90;;;;;;5040157;28;20025;-74
2022/08/07 01:33:58;;;;;;;11.05;7.00;;;15.20;99.90;;;;;;5042923;28;20428;-74
2022/08/07 01:36:26;;;;;;;9.68;6.80;;;15.20;99.90;;;;;;5039862;28;20120;-74
2022/08/07 01:38:53;;;;;;;11.25;7.22;;;15.10;99.90;;;;;;5040439;28;20053;-74
2022/08/07 01:41:19;;;;;;;11.82;7.38;;;15.20;99.90;;;;;;5035997;28;20025;-74
2022/08/07 01:43:46;;;;;;;11.35;7.47;;;15.10;99.90;;;;;;5043928;28;20032;-74
2022/08/07 01:46:12;;;;;;;11.48;7.18;;;15.10;99.90;;;;;;5059778;28;20108;-75
2022/08/07 01:48:41;;;;;;;11.95;7.50;;;15.10;99.90;;;;;;5039328;28;20492;-74
2022/08/07 01:51:10;;;;;;;13.05;7.40;;;15.10;99.90;;;;;;5039435;28;20033;-74
2022/08/07 01:53:38;;;;;;;9.70;7.20;;;15.10;99.90;;;;;;5054188;28;20898;-74
2022/08/07 01:56:21;;;;;;;11.55;7.55;;;15.00;99.90;;;;;;5023309;28;20048;-75
2022/08/07 01:58:56;;;;;;;15.13;8.20;;;15.10;99.90;;;;;;5040493;28;20079;-74
2022/08/07 02:01:33;;;;;;;10.52;7.43;;;15.00;99.90;;;;;;5038723;28;20029;-74
2022/08/07 02:04:09;;;;;;;13.25;8.20;;;15.00;99.90;;;;;;5051981;28;20029;-75
2022/08/07 02:06:38;;;;;;;11.23;7.65;;;15.00;99.90;;;;;;5038232;28;20033;-74
2022/08/07 02:09:07;;;;;;;9.93;7.40;;;15.00;99.90;;;;;;5038572;28;20733;-74
2022/08/07 02:11:35;;;;;;;11.68;8.02;;;15.00;99.90;;;;;;5039304;28;20427;-74
2022/08/07 02:14:03;;;;;;;13.88;7.63;;;15.00;99.90;;;;;;5038824;28;20041;-74
2022/08/07 02:16:29;;;;;;;12.25;7.80;;;15.00;99.90;;;;;;5041961;28;20557;-75
2022/08/07 02:18:56;;;;;;;13.45;7.80;;;14.90;99.90;;;;;;5038190;28;20112;-74
2022/08/07 02:21:23;;;;;;;11.98;7.85;;;14.90;99.90;;;;;;5040102;28;20108;-74
2022/08/07 02:23:50;;;;;;;13.00;7.57;;;14.90;99.90;;;;;;5033432;28;20527;-74
2022/08/07 02:26:16;;;;;;;13.15;8.15;;;14.90;99.90;;;;;;5039181;28;20091;-74
2022/08/07 02:28:44;;;;;;;11.57;7.50;;;14.90;99.90;;;;;;5035731;28;20056;-74
2022/08/07 02:31:11;;;;;;;12.93;7.38;;;14.90;99.90;;;;;;5041713;28;20041;-74
2022/08/07 02:33:38;;;;;;;11.40;6.82;;;14.90;99.90;;;;;;5021028;28;20029;-74
2022/08/07 02:36:05;;;;;;;11.10;7.75;;;14.90;99.90;;;;;;5039609;28;20042;-73
2022/08/07 02:38:34;;;;;;;11.18;8.07;;;14.90;99.90;;;;;;5038637;28;20929;-76
2022/08/07 02:41:01;;;;;;;12.52;7.80;;;14.90;99.90;;;;;;5041020;28;20021;-74
2022/08/07 02:43:28;;;;;;;10.82;7.70;;;14.80;99.90;;;;;;5042835;28;20160;-74
2022/08/07 02:45:56;;;;;;;14.38;7.95;;;14.80;99.90;;;;;;5039764;28;20095;-73
2022/08/07 02:48:22;;;;;;;11.27;7.82;;;14.80;99.90;;;;;;5037113;28;20042;-73
2022/08/07 02:50:51;;;;;;;10.23;7.63;;;14.70;99.90;;;;;;5038906;28;20032;-73
2022/08/07 02:53:37;;;;;;;14.40;7.70;;;14.70;99.90;;;;;;5042658;28;20116;-74
2022/08/07 02:56:04;;;;;;;12.90;7.72;;;14.70;99.90;;;;;;5043958;28;20604;-74
2022/08/07 02:58:31;;;;;;;13.38;7.65;;;14.70;99.90;;;;;;5042888;28;20040;-73
2022/08/07 03:00:58;;;;;;;13.25;8.10;;;14.70;99.90;;;;;;5040821;28;20025;-74
2022/08/07 03:03:27;;;;;;;12.00;7.47;;;14.70;99.90;;;;;;5044027;28;20064;-74
2022/08/07 03:05:55;;;;;;;12.85;7.95;;;14.70;99.90;;;;;;5042576;28;20037;-74
2022/08/07 03:08:21;;;;;;;11.80;7.75;;;14.60;99.90;;;;;;5043515;28;20037;-74
2022/08/07 03:10:48;;;;;;;15.68;8.07;;;14.60;99.90;;;;;;5040860;28;20032;-73
2022/08/07 03:13:17;;;;;;;12.10;7.13;;;14.60;99.90;;;;;;5042926;28;20082;-73
2022/08/07 03:15:44;;;;;;;10.95;7.25;;;14.50;99.90;;;;;;5044329;28;20036;-74
2022/08/07 03:18:11;;;;;;;14.90;7.88;;;14.50;99.90;;;;;;5048861;28;20026;-75
2022/08/07 03:20:39;;;;;;;12.90;8.48;;;14.50;99.90;;;;;;5045687;28;20017;-74
2022/08/07 03:23:08;;;;;;;10.63;7.32;;;14.50;99.90;;;;;;5039745;28;20051;-74
2022/08/07 03:25:39;;;;;;;11.27;8.18;;;14.50;99.90;;;;;;5061999;23;20045;-78
2022/08/07 03:28:07;;;;;;;13.35;8.27;;;14.50;99.90;;;;;;5060213;28;20089;-78
2022/08/07 03:30:34;;;;;;;12.70;7.47;;;14.50;99.90;;;;;;5056174;28;20053;-77
2022/08/07 03:33:02;;;;;;;17.50;8.13;;;14.50;99.90;;;;;;5059078;28;20039;-77
2022/08/07 03:35:29;;;;;;;13.00;7.72;;;14.50;99.90;;;;;;5059186;28;20060;-78
2022/08/07 03:38:00;;;;;;;13.07;7.70;;;14.50;99.90;;;;;;5037526;28;20144;-78
2022/08/07 03:40:27;;;;;;;11.55;7.80;;;14.50;99.90;;;;;;5054476;28;20029;-79
2022/08/07 03:42:54;;;;;;;11.13;7.63;;;14.50;99.90;;;;;;5061420;28;20013;-78
2022/08/07 03:45:21;;;;;;;13.75;8.00;;;14.50;99.90;;;;;;5058379;28;20025;-79
2022/08/07 03:47:48;;;;;;;10.05;7.43;;;14.50;99.90;;;;;;5057719;28;20026;-78
2022/08/07 03:50:16;;;;;;;12.93;8.18;;;14.50;99.90;;;;;;5062259;28;20022;-79
2022/08/07 03:52:43;;;;;;;10.65;8.25;;;14.50;99.90;;;;;;5060949;28;20085;-79
2022/08/07 03:55:09;;;;;;;12.00;7.68;;;14.40;99.90;;;;;;5059996;28;20037;-78
2022/08/07 03:57:36;;;;;;;14.13;8.35;;;14.40;99.90;;;;;;5058899;28;20107;-79
2022/08/07 04:00:03;;;;;;;12.40;7.85;;;14.40;99.90;;;;;;5060393;28;20026;-78
2022/08/07 04:02:29;;;;;;;13.10;8.40;;;14.40;99.90;;;;;;5060420;28;20025;-78
2022/08/07 04:04:55;;;;;;;11.43;8.30;;;14.40;99.90;;;;;;5040925;28;20029;-78
2022/08/07 04:07:21;;;;;;;12.32;7.63;;;14.40;99.90;;;;;;5056139;28;20033;-78
2022/08/07 04:09:48;;;;;;;10.85;7.43;;;14.40;99.90;;;;;;5057877;28;20025;-78
2022/08/07 04:12:15;;;;;;;11.15;7.60;;;14.40;99.90;;;;;;5040810;28;20025;-78
2022/08/07 04:14:42;;;;;;;13.23;8.20;;;14.30;99.90;;;;;;5045084;28;20043;-78
2022/08/07 04:17:09;;;;;;;12.55;8.48;;;14.30;99.90;;;;;;5043800;28;20498;-78
2022/08/07 04:19:35;;;;;;;11.25;7.47;;;14.30;99.90;;;;;;5059314;28;20097;-78
2022/08/07 04:22:01;;;;;;;11.60;8.15;;;14.40;99.90;;;;;;5060671;28;20025;-79
2022/08/07 04:24:28;;;;;;;14.98;8.20;;;14.40;99.90;;;;;;5053291;28;20504;-80
2022/08/07 04:26:56;;;;;;;14.80;8.25;;;14.40;99.90;;;;;;5057019;28;20029;-79
2022/08/07 04:29:25;;;;;;;11.38;8.23;;;14.40;99.90;;;;;;5033569;28;20027;-80
2022/08/07 04:31:50;;;;;;;12.93;8.50;;;14.30;99.90;;;;;;5060827;28;20025;-77
2022/08/07 04:34:17;;;;;;;10.05;7.40;;;14.40;99.90;;;;;;5058323;28;20037;-79
2022/08/07 04:36:43;;;;;;;12.73;8.68;;;14.40;99.90;;;;;;5057436;28;20048;-79
2022/08/07 04:39:09;;;;;;;12.93;8.38;;;14.40;99.90;;;;;;5058580;28;20029;-81
2022/08/07 04:41:34;;;;;;;13.30;8.77;;;14.40;99.90;;;;;;5067241;28;20017;-76
2022/08/07 04:44:00;;;;;;;12.27;8.90;;;14.40;99.90;;;;;;5065242;28;20033;-76
2022/08/07 04:46:37;;;;;;;12.32;8.68;;;14.40;99.90;;;;;;5065563;28;20021;-77
2022/08/07 04:49:21;;;;;;;14.10;8.85;;;14.50;99.90;;;;;;5064075;28;20039;-76
2022/08/07 04:51:55;;;;;;;13.68;9.10;;;14.50;99.90;;;;;;5061842;28;20029;-77
2022/08/07 04:54:59;;;;;;;14.38;9.55;;;14.50;99.90;;;;;;5035158;28;20187;-78
2022/08/07 04:57:33;;;;;;;15.82;9.10;;;14.50;99.90;;;;;;5046998;28;20055;-77
2022/08/07 05:00:25;;;;;;;12.18;8.43;;;14.60;99.90;;;;;;5033213;28;20452;-78
2022/08/07 05:03:03;;;;;;;10.13;5.82;;;14.60;99.90;;;;;;5034179;28;20029;-78
2022/08/07 05:05:35;;;;;;;11.45;7.57;;;15.70;99.90;;;;;;5054121;28;20025;-77
2022/08/07 05:08:08;;;;;;;13.85;7.85;;;16.30;99.90;;;;;;5030906;28;20033;-78
2022/08/07 05:10:40;;;;;;;8.75;6.40;;;16.20;99.90;;;;;;5056607;28;20040;-78
2022/08/07 05:13:08;;;;;;;13.63;7.68;;;16.40;99.90;;;;;;5058563;28;20029;-76
2022/08/07 05:15:37;;;;;;;11.63;8.40;;;16.40;99.90;;;;;;5058024;28;20112;-77
2022/08/07 05:18:08;;;;;;;11.13;7.93;;;16.00;99.90;;;;;;5061370;28;20089;-78
2022/08/07 05:20:40;;;;;;;13.93;8.93;;;15.70;99.90;;;;;;5062208;28;20005;-78
2022/08/07 05:23:10;;;;;;;13.15;8.32;;;15.50;99.90;;;;;;5049573;28;20037;-77
2022/08/07 05:25:39;;;;;;;12.30;8.90;;;15.40;99.90;;;;;;5051239;28;20146;-78
2022/08/07 05:28:07;;;;;;;13.55;9.38;;;15.40;99.90;;;;;;5035644;28;20029;-77
2022/08/07 05:30:34;;;;;;;13.85;8.38;;;15.30;99.90;;;;;;5034567;28;20021;-77
2022/08/07 05:33:01;;;;;;;12.70;8.93;;;15.30;99.90;;;;;;5050671;28;20048;-77
2022/08/07 05:35:30;;;;;;;15.40;9.90;;;15.30;99.90;;;;;;5052287;28;20036;-77
2022/08/07 05:37:56;;;;;;;13.07;9.70;;;15.30;99.90;;;;;;5056295;28;20044;-78
2022/08/07 05:40:22;;;;;;;14.45;9.10;;;15.30;99.90;;;;;;5070345;28;20057;-77
2022/08/07 05:42:48;;;;;;;14.77;9.02;;;15.30;99.90;;;;;;5052891;28;20029;-77
2022/08/07 05:45:15;;;;;;;15.75;9.27;;;15.40;99.90;;;;;;5048612;28;20029;-70
2022/08/07 05:47:41;;;;;;;14.38;10.30;;;15.40;99.90;;;;;;5041568;28;20032;-71
2022/08/07 05:50:08;;;;;;;15.10;9.63;;;15.40;99.90;;;;;;5037278;28;20036;-71
2022/08/07 05:52:34;;;;;;;15.13;10.10;;;15.40;99.90;;;;;;5034302;28;20159;-71
2022/08/07 05:55:00;;;;;;;14.27;10.02;;;15.50;99.90;;;;;;5039802;28;20079;-72
2022/08/07 05:57:28;;;;;;;13.25;9.65;;;15.50;99.90;;;;;;5040168;28;20037;-72
2022/08/07 05:59:55;;;;;;;16.30;9.98;;;15.50;99.90;;;;;;5037061;28;20048;-72
2022/08/07 06:02:24;;;;;;;13.50;9.77;;;15.50;99.90;;;;;;5033464;28;20031;-71
2022/08/07 06:04:53;;;;;;;13.82;9.85;;;15.60;99.90;;;;;;5035447;28;20029;-71
2022/08/07 06:07:19;;;;;;;13.02;8.60;;;15.70;99.90;;;;;;5038491;28;20048;-71
2022/08/07 06:09:46;;;;;;;19.13;10.23;;;15.60;99.90;;;;;;5037131;28;20107;-71
2022/08/07 06:12:13;;;;;;;17.88;8.68;;;15.70;99.90;;;;;;5036580;28;20112;-72
2022/08/07 06:14:39;;;;;;;12.00;8.20;;;15.70;99.90;;;;;;5035462;28;20029;-72
2022/08/07 06:17:07;;;;;;;13.25;7.72;;;15.80;99.90;;;;;;5015031;28;20053;-72
2022/08/07 06:19:33;;;;;;;12.75;7.57;;;15.80;99.90;;;;;;5044228;28;20032;-78
2022/08/07 06:21:59;;;;;;;16.05;7.78;;;15.80;99.90;;;;;;5046119;28;20030;-78
2022/08/07 06:24:25;;;;;;;14.00;7.35;;;15.80;99.90;;;;;;5026626;28;20049;-71
2022/08/07 06:26:52;;;;;;;12.40;7.07;;;15.90;99.90;;;;;;5034376;28;20029;-76
2022/08/07 06:29:18;;;;;;;16.15;7.50;;;15.90;99.90;;;;;;5036956;28;20036;-72
2022/08/07 06:31:43;;;;;;;13.30;6.78;;;16.00;99.90;;;;;;5042304;28;20032;-74
2022/08/07 06:34:09;;;;;;;9.18;6.20;;;16.10;99.90;;;;;;5040669;28;20032;-74
2022/08/07 06:36:35;;;;;;;7.47;6.13;;;16.10;99.90;;;;;;5021626;28;20024;-74
2022/08/07 06:39:01;;;;;;;11.27;5.85;;;16.10;99.90;;;;;;5040760;28;20037;-73
2022/08/07 06:41:33;;;;;;;7.45;4.90;;;16.20;99.90;;;;;;5038411;28;20621;-74
2022/08/07 06:44:00;;;;;;;9.38;4.82;;;16.20;99.90;;;;;;5042660;28;20037;-73
2022/08/07 06:46:26;;;;;;;9.45;5.28;;;16.20;99.90;;;;;;5042225;28;20025;-73
2022/08/07 06:48:52;;;;;;;9.88;5.20;;;16.20;99.90;;;;;;5041669;28;20025;-73
2022/08/07 06:51:23;;;;;;;7.25;5.03;;;16.20;99.90;;;;;;5048119;28;20076;-77
2022/08/07 06:53:49;;;;;;;11.05;4.55;;;16.30;99.90;;;;;;5037020;28;20104;-77
2022/08/07 06:56:38;;;;;;;10.48;4.50;;;16.40;99.90;;;;;;5049216;28;20024;-77
2022/08/07 06:59:03;;;;;;;8.10;4.45;;;16.40;99.90;;;;;;5052101;28;20035;-78
2022/08/07 07:01:32;;;;;;;6.50;4.43;;;16.40;99.90;;;;;;5053458;28;20036;-79
2022/08/07 07:03:57;;;;;;;9.77;4.60;;;16.50;99.90;;;;;;5044444;28;20025;-78
2022/08/07 07:06:23;;;;;;;6.72;4.57;;;16.60;99.90;;;;;;5044646;28;20024;-78
2022/08/07 07:08:49;;;;;;;8.23;4.38;;;16.60;99.90;;;;;;5045918;28;20212;-78
2022/08/07 07:11:15;;;;;;;6.43;3.95;;;16.60;99.90;;;;;;5061017;28;20029;-78
2022/08/07 07:13:48;;;;;;;6.80;4.45;;;16.70;99.90;;;;;;5067922;28;20025;-80
2022/08/07 07:16:19;;;;;;;7.90;4.70;;;16.70;99.90;;;;;;5046345;28;20481;-79
2022/08/07 07:18:53;;;;;;;7.68;4.57;;;16.70;99.90;;;;;;5045761;28;20029;-78
2022/08/07 07:21:40;;;;;;;7.70;4.38;;;16.80;99.90;;;;;;5064159;28;20025;-79
2022/08/07 07:24:09;;;;;;;9.93;4.97;;;16.80;99.90;;;;;;5061451;28;20025;-80
2022/08/07 07:26:36;;;;;;;16.30;6.15;;;17.00;99.90;;;;;;5058443;28;20537;-80
2022/08/07 07:29:10;;;;;;;11.35;5.05;;;17.30;99.90;;;;;;5043132;28;20219;-80
2022/08/07 07:31:43;;;;;;;10.35;5.97;;;17.40;99.90;;;;;;5059759;28;20108;-80
2022/08/07 07:34:13;;;;;;;10.73;5.45;;;17.70;99.90;;;;;;5051460;28;20028;-80
2022/08/07 07:36:43;;;;;;;8.95;5.03;;;17.80;99.90;;;;;;5044132;28;20069;-79
2022/08/07 07:39:10;;;;;;;11.80;4.95;;;17.90;99.90;;;;;;5040432;28;20037;-79
2022/08/07 07:41:38;;;;;;;9.15;4.75;;;18.00;99.90;;;;;;5058495;28;20017;-80
2022/08/07 07:44:07;;;;;;;9.10;5.15;;;18.10;99.90;;;;;;5058786;28;20040;-79
2022/08/07 07:46:36;;;;;;;6.90;4.32;;;18.20;99.90;;;;;;5041497;28;20027;-79
2022/08/07 07:49:04;;;;;;;6.22;3.92;;;18.10;99.90;;;;;;5060415;28;20412;-79
2022/08/07 07:51:30;;;;;;;8.05;4.03;;;17.90;99.90;;;;;;5056221;28;20030;-79
2022/08/07 07:53:58;;;;;;;5.30;4.38;;;17.80;99.90;;;;;;5060060;28;20039;-79
2022/08/07 07:56:26;;;;;;;7.10;3.75;;;17.80;99.90;;;;;;5037983;28;20026;-79
2022/08/07 07:58:54;;;;;;;7.55;4.82;;;17.80;99.90;;;;;;5058489;28;20067;-80
2022/08/07 08:01:22;;;;;;;6.07;4.28;;;17.80;99.90;;;;;;5059921;28;20025;-79
2022/08/07 08:03:50;;;;;;;6.18;4.35;;;17.80;99.90;;;;;;5042729;28;20040;-80
2022/08/07 08:06:18;;;;;;;7.78;4.28;;;17.80;99.90;;;;;;5049575;28;20036;-77
2022/08/07 08:08:45;;;;;;;6.18;4.15;;;17.80;99.90;;;;;;5025943;28;20032;-79
2022/08/07 08:11:11;;;;;;;7.05;3.90;;;17.70;99.90;;;;;;5041795;28;20029;-77
2022/08/07 08:13:46;;;;;;;5.68;3.95;;;17.70;99.90;;;;;;5040115;28;20112;-77
2022/08/07 08:16:15;;;;;;;6.03;4.38;;;17.80;99.90;;;;;;5040729;28;20028;-78
2022/08/07 08:18:43;;;;;;;4.90;3.50;;;17.80;99.90;;;;;;5028057;28;20035;-77
2022/08/07 08:27:03;;;;;;;6.30;3.75;;;17.80;99.90;;;;;;5021411;28;20144;-77
2022/08/07 08:27:03;;;;;;;6.40;4.35;;;17.80;99.90;;;;;;5043027;28;20022;-76
2022/08/07 08:29:34;;;;;;;6.38;4.30;;;17.90;99.90;;;;;;5041474;28;20021;-75
2022/08/07 08:32:02;;;;;;;6.80;3.92;;;17.90;99.90;;;;;;5057825;28;20097;-78
2022/08/07 08:34:30;;;;;;;7.38;3.83;;;18.00;99.90;;;;;;5058393;28;20044;-76
2022/08/07 08:36:57;;;;;;;5.10;3.90;;;18.00;98.90;;;;;;5050993;28;20056;-78
2022/08/07 08:39:25;;;;;;;4.80;3.65;;;18.00;99.30;;;;;;5050940;28;20033;-78
2022/08/07 08:42:10;;;;;;;5.25;3.70;;;18.10;99.20;;;;;;5055709;28;20017;-77
2022/08/07 08:44:42;;;;;;;8.82;4.20;;;18.10;98.90;;;;;;5055954;28;20611;-79
2022/08/07 08:47:20;;;;;;;5.32;3.80;;;18.20;98.60;;;;;;5050140;28;20032;-77
2022/08/07 08:50:03;;;;;;;7.13;4.40;;;18.20;98.20;;;;;;5046649;28;20032;-78
2022/08/07 08:52:34;;;;;;;6.13;4.03;;;18.20;98.10;;;;;;5047345;28;20029;-77
2022/08/07 08:55:16;;;;;;;7.47;3.95;;;18.30;98.10;;;;;;5057239;28;20132;-76
2022/08/07 08:58:01;;;;;;;5.82;4.25;;;18.40;99.90;;;;;;5053300;28;20204;-77
2022/08/07 09:00:31;;;;;;;6.68;3.85;;;18.50;99.10;;;;;;5057708;28;20036;-77
2022/08/07 09:03:11;;;;;;;5.32;3.88;;;18.40;97.80;;;;;;5047088;28;20035;-77
2022/08/07 09:05:49;;;;;;;5.43;3.90;;;18.40;97.50;;;;;;5023721;28;20021;-76
2022/08/07 09:08:56;;;;;;;6.00;3.85;;;18.40;97.20;;;;;;5018889;28;20033;-78
2022/08/07 09:11:49;;;;;;;6.65;4.15;;;18.50;96.50;;;;;;5038148;28;20397;-77
2022/08/07 09:14:38;;;;;;;4.53;3.30;;;18.50;95.20;;;;;;5035090;28;20084;-77
2022/08/07 09:17:10;;;;;;;5.70;3.20;;;18.50;96.00;;;;;;5022408;28;20059;-78
2022/08/07 09:19:44;;;;;;;4.15;3.35;;;18.60;95.90;;;;;;5039499;28;20025;-78
2022/08/07 09:22:59;;;;;;;5.28;3.70;;;18.60;96.00;;;;;;5043226;28;20033;-78
2022/08/07 09:25:37;;;;;;;6.43;3.67;;;18.60;95.90;;;;;;5040069;28;20039;-78
2022/08/07 09:28:09;;;;;;;5.28;3.42;;;18.70;96.00;;;;;;5025259;28;20079;-78
2022/08/07 09:31:06;;;;;;;4.93;3.45;;;18.80;96.00;;;;;;5042493;28;20029;-78
2022/08/07 09:33:58;;;;;;;6.82;3.75;;;18.80;95.90;;;;;;5041051;28;20021;-77
2022/08/07 09:36:28;;;;;;;;;;;19.00;96.30;;;;;;5038766;28;20025;-77
2022/08/07 09:39:24;;;;;;;5.13;4.10;;;18.90;96.60;;;;;;5046312;28;19919;-77
2022/08/07 09:42:08;;;;;;;5.90;4.10;;;19.00;96.00;;;;;;5019389;28;20067;-77
2022/08/07 09:45:01;;;;;;;4.80;4.03;;;19.00;95.80;;;;;;5035179;28;20519;-77
2022/08/07 09:47:51;;;;;;;9.32;5.25;;;19.00;95.70;;;;;;5027573;28;20030;-77
2022/08/07 09:50:32;;;;;;;6.38;4.68;;;19.00;96.30;;;;;;5049845;28;20071;-77
2022/08/07 09:53:04;;;;;;;5.15;4.15;;;19.10;96.10;;;;;;5038224;28;20296;-76
2022/08/07 09:55:57;;;;;;;7.05;4.10;;;19.10;96.00;;;;;;5039037;28;20021;-77
2022/08/07 09:59:06;;;;;;;5.30;4.05;;;19.20;96.10;;;;;;5022795;28;20037;-77
2022/08/07 10:01:50;;;;;;;5.45;4.35;;;19.30;95.80;;;;;;5042659;28;20053;-77
2022/08/07 10:04:57;;;;;;;5.93;4.22;;;19.40;95.70;;;;;;5050573;28;20033;-77
2022/08/07 10:07:29;;;;;;;6.07;3.90;;;19.50;96.00;;;;;;5036369;28;20069;-77
2022/08/07 10:10:08;;;;;;;5.50;3.88;;;19.50;96.30;;;;;;5036838;28;20037;-77
2022/08/07 10:12:52;;;;;;;4.85;3.63;;;19.60;95.90;;;;;;5034095;28;20029;-77
2022/08/07 10:15:34;;;;;;;4.93;3.58;;;19.70;95.80;;;;;;5039906;28;20125;-76
2022/08/07 10:18:30;;;;;;;6.78;4.00;;;19.70;95.00;;;;;;5038619;28;20100;-77
2022/08/07 10:21:07;;;;;;;5.35;4.28;;;19.70;94.40;;;;;;5021938;28;20037;-77
2022/08/07 10:23:55;;;;;;;7.35;4.10;;;19.80;94.80;;;;;;5040380;28;20022;-76
2022/08/07 10:26:23;;;;;;;6.53;3.88;;;19.80;94.60;;;;;;5038412;28;20040;-76
2022/08/07 10:29:22;;;;;;;6.30;4.28;;;19.70;94.30;;;;;;5036907;28;20039;-78
2022/08/07 10:32:12;;;;;;;7.50;3.53;;;19.80;95.20;;;;;;5052257;28;20098;-79
2022/08/07 10:35:06;;;;;;;5.75;4.35;;;19.80;95.20;;;;;;5051207;28;20059;-79
2022/08/07 10:37:44;;;;;;;11.57;4.82;;;19.80;95.00;;;;;;5050416;28;20026;-80
2022/08/07 10:40:32;;;;;;;9.05;4.47;;;20.00;97.90;;;;;;5048641;28;20032;-79
2022/08/07 10:43:08;;;;;;;7.10;4.05;;;20.30;97.30;;;;;;5047002;28;20033;-75
2022/08/07 10:45:41;;;;;;;6.22;4.13;;;20.40;96.20;;;;;;5038747;28;20052;-73
2022/08/07 10:48:32;;;;;;;8.88;4.30;;;20.50;96.20;;;;;;5037304;28;20029;-73
2022/08/07 10:51:20;;;;;;;5.53;3.50;;;20.60;95.60;;;;;;5038760;28;20037;-73
2022/08/07 10:54:05;;;;;;;6.70;4.20;;;20.60;94.90;;;;;;5046688;28;20284;-77
2022/08/07 10:57:09;;;;;;;5.38;3.92;;;20.50;93.50;;;;;;5035053;28;20029;-77
2022/08/07 10:59:41;;;;;;;4.65;3.72;;;20.50;93.80;;;;;;5040918;28;20033;-77
2022/08/07 11:02:41;;;;;;;4.97;3.65;;;20.60;93.70;;;;;;5038424;28;20033;-77
2022/08/07 11:05:31;;;;;;;6.43;3.47;;;20.60;94.00;;;;;;5038374;28;20566;-77
2022/08/07 11:08:01;;;;;;;6.43;4.43;;;20.70;93.10;;;;;;5039461;28;20100;-77
2022/08/07 11:11:12;;;;;;;5.63;3.60;;;20.70;93.00;;;;;;5038164;28;20033;-77
2022/08/07 11:13:38;;;;;;;5.25;3.88;;;20.90;92.70;;;;;;5028290;28;20037;-77
2022/08/07 11:16:10;;;;;;;6.50;3.95;;;21.10;91.50;;;;;;5044213;28;20147;-76
2022/08/07 11:18:53;;;;;;;6.70;4.03;;;21.50;91.60;;;;;;5042324;28;20025;-77
2022/08/07 11:21:37;;;;;;;6.88;3.85;;;22.60;90.60;;;;;;5032196;28;20033;-77
2022/08/07 11:24:35;;;;;;;6.10;4.07;;;24.30;81.20;;;;;;5047122;28;20032;-76
2022/08/07 11:27:19;;;;;;;6.53;3.75;;;24.50;77.80;;;;;;5033956;28;20068;-78
2022/08/07 11:30:05;;;;;;;8.70;4.00;;;24.20;76.30;;;;;;5044739;28;20064;-77
2022/08/07 11:32:42;;;;;;;6.25;3.30;;;23.20;77.30;;;;;;5045894;28;20025;-76
2022/08/07 11:35:17;;;;;;;4.72;3.13;;;24.00;76.40;;;;;;5036383;28;20033;-77
2022/08/07 11:37:42;;;;;;;5.55;3.47;;;26.00;71.70;;;;;;5040249;28;20966;-76
2022/08/07 11:40:11;;;;;;;5.63;3.50;;;25.60;66.60;;;;;;5040992;28;20038;-76
2022/08/07 11:43:02;;;;;;;7.07;3.47;;;25.10;66.90;;;;;;5040237;28;20052;-76
2022/08/07 11:45:43;;;;;;;;;;;24.10;68.90;;;;;;5040437;28;20251;-76
2022/08/07 11:48:11;;;;;;;7.07;3.40;;;23.20;70.60;;;;;;5042294;28;19912;-75
2022/08/07 11:51:01;;;;;;;7.50;3.67;;;22.70;72.90;;;;;;5043827;28;20032;-76
2022/08/07 11:53:40;;;;;;;4.28;2.92;;;22.50;74.20;;;;;;5041934;28;20097;-76
2022/08/07 11:56:25;;;;;;;4.95;2.97;;;23.30;76.80;;;;;;5043073;28;20187;-78
2022/08/07 11:58:59;;;;;;;5.22;3.10;;;24.20;73.00;;;;;;5043520;28;20464;-77
2022/08/07 12:01:42;;;;;;;4.13;3.13;;;24.80;69.10;;;;;;5040120;28;20021;-77
2022/08/07 12:04:26;;;;;;;6.47;2.90;;;25.70;67.40;;;;;;5029266;28;20036;-78
2022/08/07 12:07:18;;;;;;;3.65;2.72;;;26.30;62.80;;;;;;5047759;28;20036;-78
2022/08/07 12:09:55;;;;;;;3.70;2.90;;;26.10;62.20;;;;;;5048156;28;20072;-78
2022/08/07 12:12:49;;;;;;;4.88;3.22;;;25.70;63.10;;;;;;5047721;28;20029;-78
2022/08/07 12:15:21;;;;;;;3.28;2.83;;;25.20;63.00;;;;;;5024631;28;20029;-76
2022/08/07 12:17:56;;;;;;;4.05;2.80;;;24.60;64.70;;;;;;5047316;28;20110;-78
2022/08/07 12:20:51;;;;;;;6.57;3.10;;;24.00;65.80;;;;;;5055310;28;20028;-79
2022/08/07 12:23:39;;;;;;;3.75;3.17;;;23.60;65.80;;;;;;5062913;28;20052;-78
2022/08/07 12:26:30;;;;;;;3.35;2.90;;;23.30;66.70;;;;;;5048918;28;20036;-78
2022/08/07 12:29:23;;;;;;;3.08;2.58;;;23.90;68.10;;;;;;5051165;28;20511;-80
2022/08/07 12:31:57;;;;;;;5.80;3.45;;;24.60;66.90;;;;;;5049395;28;20037;-78
2022/08/07 12:34:27;;;;;;;3.97;3.30;;;24.70;65.80;;;;;;5049355;28;20089;-78
2022/08/07 12:36:55;;;;;;;3.50;2.80;;;24.60;65.50;;;;;;5054455;28;20028;-78
2022/08/07 12:39:23;;;;;;;4.55;3.50;;;24.10;65.10;;;;;;5047308;28;20276;-79
2022/08/07 12:41:51;;;;;;;5.10;3.60;;;24.10;64.70;;;;;;5043785;28;20712;-77
2022/08/07 12:44:23;;;;;;;4.63;3.13;;;24.10;64.90;;;;;;5045231;28;20046;-77
2022/08/07 12:47:10;;;;;;;5.63;3.08;;;25.20;62.30;;;;;;5047352;28;20040;-79
2022/08/07 12:50:01;;;;;;;3.47;2.75;;;26.30;59.80;;;;;;5027363;28;20045;-79
2022/08/07 12:52:55;;;;;;;4.07;3.13;;;26.70;58.40;;;;;;5055319;28;20036;-79
2022/08/07 12:56:02;;;;;;;3.42;2.83;;;26.20;60.10;;;;;;5031640;28;20096;-78
2022/08/07 12:58:33;;;;;;;3.90;3.00;;;26.00;60.60;;;;;;5031012;28;20033;-78
2022/08/07 13:01:06;;;;;;;;;;;26.10;61.10;;;;;;5050333;28;20025;-79
2022/08/07 13:04:03;;;;;;;3.53;2.85;;;26.00;60.70;;;;;;5059054;28;19920;-81
2022/08/07 13:07:03;;;;;;;5.95;3.28;;;25.50;61.10;;;;;;5072228;28;20025;-79
2022/08/07 13:09:56;;;;;;;5.57;2.90;;;25.20;62.80;;;;;;5062603;28;20040;-79
2022/08/07 13:12:41;;;;;;;5.82;3.38;;;25.10;61.40;;;;;;5044531;28;20030;-78
2022/08/07 13:15:18;;;;;;;10.45;3.53;;;24.90;68.90;;;;;;5061071;28;20104;-79
2022/08/07 13:18:07;;;;;;;7.07;3.40;;;24.70;66.50;;;;;;5039799;28;20071;-80